Weather at Miami International Airport

Public forecast

Using degrees Fahrenheit for public forecast. Weather courtesy of forecast.io.

Current aviation weather report (METAR) for Miami International Airport

Retrieved 2021/01/28 06:53 UTC (49 minutes ago):

KMIA 280653Z 25005KT 7SM CLR 22/21 A3007 RMK AO2 SLP182 T02220211

Aviation forecast (TAF) for Miami International Airport

Retrieved 2021/01/28 06:51 UTC (51 minutes ago):

TAF KMIA 280548Z 2806/2912 25006KT P6SM FEW020 SCT250 FM281200 32011KT P6SM SCT015 BKN030 FM281800 35015G25KT P6SM FEW025 SCT050 FM290100 02015KT P6SM SCT030 BKN200